Time;durP1;ratioP1;P1;durP2;ratioP2;P2;SDS_P1;SDS_P2;PMS_P1;PMS_P2;Temp;Humidity;BMP_temperature;BMP_pressure;BME280_temperature;BME280_humidity;BME280_pressure;Samples;Min_cycle;Max_cycle;Signal;HPM_P1;HPM_P2
2021/12/21 00:02:03;;;;;;;97.53;38.65;;;;;;;;;;5145365;27;20058;-59
2021/12/21 00:04:29;;;;;;;89.18;36.78;;;;;;;;;;5145519;27;20039;-60
2021/12/21 00:06:55;;;;;;;74.30;33.10;;;;;;;;;;5144969;27;20047;-59
2021/12/21 00:09:21;;;;;;;72.95;32.67;;;;;;;;;;5126797;28;20061;-59
2021/12/21 00:11:48;;;;;;;75.57;31.90;;;;;;;;;;5145425;27;20201;-59
2021/12/21 00:14:26;;;;;;;86.80;36.05;;;;;;;;;;5145453;28;20391;-59
2021/12/21 00:22:11;;;;;;;105.65;39.30;;;;;;;;;;5144560;28;20043;-59
2021/12/21 00:24:45;;;;;;;95.82;36.80;;;;;;;;;;5145150;28;20047;-59
2021/12/21 00:27:13;;;;;;;79.00;34.25;;;;;;;;;;5132357;28;20048;-59
2021/12/21 00:29:39;;;;;;;97.68;40.35;;;;;;;;;;5130356;28;20095;-59
2021/12/21 00:32:06;;;;;;;84.20;34.17;;;;;;;;;;5126853;28;20092;-59
2021/12/21 00:34:32;;;;;;;74.82;32.45;;;;;;;;;;5145135;28;20084;-59
2021/12/21 00:36:58;;;;;;;70.13;32.50;;;;;;;;;;5145101;28;20038;-59
2021/12/21 00:39:25;;;;;;;67.10;30.50;;;;;;;;;;5145116;28;20071;-59
2021/12/21 00:41:51;;;;;;;75.90;32.25;;;;;;;;;;5145032;28;20047;-59
2021/12/21 00:44:17;;;;;;;68.38;33.40;;;;;;;;;;5145031;28;20043;-58
2021/12/21 00:46:44;;;;;;;61.17;29.27;;;;;;;;;;5126749;27;20045;-59
2021/12/21 00:49:15;;;;;;;80.18;31.83;;;;;;;;;;5149120;27;20074;-58
2021/12/21 00:51:43;;;;;;;71.28;29.90;;;;;;;;;;5130392;27;20075;-58
2021/12/21 00:54:09;;;;;;;63.38;28.42;;;;;;;;;;5148870;27;20127;-60
2021/12/21 00:56:35;;;;;;;62.50;28.85;;;;;;;;;;5148924;27;20050;-59
2021/12/21 00:59:02;;;;;;;63.15;30.08;;;;;;;;;;5148997;27;20051;-59
2021/12/21 01:01:28;;;;;;;60.45;26.80;;;;;;;;;;5148491;27;20047;-58
2021/12/21 01:03:56;;;;;;;69.93;30.88;;;;;;;;;;5148569;27;20054;-58
2021/12/21 01:06:41;;;;;;;64.40;28.92;;;;;;;;;;5148475;27;20046;-59
2021/12/21 01:11:41;;;;;;;66.68;31.65;;;;;;;;;;5128670;27;20047;-59
2021/12/21 01:16:47;;;;;;;67.03;26.73;;;;;;;;;;5139151;27;20110;-58
2021/12/21 01:21:56;;;;;;;69.70;27.38;;;;;;;;;;5148030;27;20076;-58
2021/12/21 01:24:38;;;;;;;55.58;27.35;;;;;;;;;;5148609;27;20042;-59
2021/12/21 01:27:22;;;;;;;62.83;28.67;;;;;;;;;;5148304;27;20074;-59
2021/12/21 01:33:03;;;;;;;47.67;24.02;;;;;;;;;;5147743;27;20134;-59
2021/12/21 01:35:15;;;;;;;53.40;23.85;;;;;;;;;;5139312;27;20043;-59
2021/12/21 01:37:59;;;;;;;53.90;26.13;;;;;;;;;;5148340;27;20098;-58
2021/12/21 01:51:00;;;;;;;54.75;25.80;;;;;;;;;;5147420;27;20050;-59
2021/12/21 01:53:26;;;;;;;54.65;26.63;;;;;;;;;;5147977;27;20070;-59
2021/12/21 01:55:52;;;;;;;49.60;24.88;;;;;;;;;;5147438;27;20525;-59
2021/12/21 01:58:19;;;;;;;57.35;25.40;;;;;;;;;;5146684;27;20065;-59
2021/12/21 02:00:45;;;;;;;51.50;25.65;;;;;;;;;;5147477;27;20063;-59
2021/12/21 02:03:12;;;;;;;55.55;25.63;;;;;;;;;;5147732;27;20035;-59
2021/12/21 02:05:38;;;;;;;56.35;26.20;;;;;;;;;;5128113;27;20096;-59
2021/12/21 02:08:05;;;;;;;50.20;23.33;;;;;;;;;;5147474;27;20062;-59
2021/12/21 02:10:31;;;;;;;53.70;24.50;;;;;;;;;;5147493;27;20111;-59
2021/12/21 02:12:57;;;;;;;58.10;26.05;;;;;;;;;;5129200;27;20074;-59
2021/12/21 02:15:25;;;;;;;60.00;27.02;;;;;;;;;;5147431;27;20106;-59
2021/12/21 02:20:39;;;;;;;47.45;23.48;;;;;;;;;;5146533;27;20055;-58
2021/12/21 02:23:17;;;;;;;46.17;24.30;;;;;;;;;;5147362;27;20053;-59
2021/12/21 02:31:05;;;;;;;63.67;26.05;;;;;;;;;;5146962;27;20039;-59
2021/12/21 02:33:31;;;;;;;58.97;25.52;;;;;;;;;;5147232;27;20043;-58
2021/12/21 02:35:58;;;;;;;51.72;25.30;;;;;;;;;;5146627;27;20099;-58
2021/12/21 02:38:24;;;;;;;56.83;25.95;;;;;;;;;;5147563;27;20046;-59
2021/12/21 02:40:51;;;;;;;56.10;26.30;;;;;;;;;;5146604;27;20102;-59
2021/12/21 02:43:17;;;;;;;57.10;26.00;;;;;;;;;;5146932;27;20557;-59
2021/12/21 02:45:43;;;;;;;50.15;25.15;;;;;;;;;;5146604;27;20047;-58
2021/12/21 02:48:10;;;;;;;62.60;27.38;;;;;;;;;;5145486;27;20054;-59
2021/12/21 02:50:36;;;;;;;54.42;24.65;;;;;;;;;;5145625;27;20051;-59
2021/12/21 02:53:03;;;;;;;52.28;24.65;;;;;;;;;;5147211;27;20071;-58
2021/12/21 02:55:29;;;;;;;56.88;25.38;;;;;;;;;;5146231;27;20054;-58
2021/12/21 02:57:58;;;;;;;58.45;27.05;;;;;;;;;;5146172;27;20043;-59
2021/12/21 03:00:25;;;;;;;49.78;25.23;;;;;;;;;;5146467;27;20043;-58
2021/12/21 03:02:52;;;;;;;45.38;23.38;;;;;;;;;;5146709;27;20096;-59
2021/12/21 03:05:18;;;;;;;39.05;21.77;;;;;;;;;;5145956;27;20043;-60
2021/12/21 03:11:05;;;;;;;37.25;20.13;;;;;;;;;;5062214;28;20057;-59
2021/12/21 03:16:16;;;;;;;52.10;23.83;;;;;;;;;;5062590;28;20502;-59
2021/12/21 03:18:43;;;;;;;45.60;21.90;;;;;;;;;;5062447;28;20083;-58
2021/12/21 03:21:09;;;;;;;51.80;22.40;;;;;;;;;;5061160;28;20045;-59
2021/12/21 03:23:35;;;;;;;47.80;23.08;;;;;;;;;;5062379;28;20105;-59
2021/12/21 03:26:01;;;;;;;40.20;21.23;;;;;;;;;;5061830;28;20574;-59
2021/12/21 03:28:27;;;;;;;42.22;21.63;;;;;;;;;;5062185;28;20048;-59
2021/12/21 03:30:53;;;;;;;42.60;22.73;;;;;;;;;;5061832;28;20335;-59
2021/12/21 03:33:20;;;;;;;52.03;21.88;;;;;;;;;;5062243;28;20041;-58
2021/12/21 03:35:46;;;;;;;39.33;21.23;;;;;;;;;;5044892;28;20080;-59
2021/12/21 03:38:14;;;;;;;47.13;23.73;;;;;;;;;;5062372;28;20107;-59
2021/12/21 03:40:40;;;;;;;42.03;21.25;;;;;;;;;;5061992;28;20048;-59
2021/12/21 03:43:06;;;;;;;48.55;23.00;;;;;;;;;;5061936;28;20048;-59
2021/12/21 03:45:37;;;;;;;39.78;21.98;;;;;;;;;;5130857;27;20340;-59
2021/12/21 03:48:03;;;;;;;51.67;23.98;;;;;;;;;;5145913;27;20047;-59
2021/12/21 03:50:30;;;;;;;42.45;22.98;;;;;;;;;;5144941;27;20058;-59
2021/12/21 03:52:56;;;;;;;49.67;23.67;;;;;;;;;;5145462;27;20050;-59
2021/12/21 03:55:22;;;;;;;47.67;23.40;;;;;;;;;;5144929;27;20133;-59
2021/12/21 03:57:48;;;;;;;55.30;22.77;;;;;;;;;;5145409;27;20049;-58
2021/12/21 04:00:15;;;;;;;50.38;23.52;;;;;;;;;;5145153;27;20509;-58
2021/12/21 04:02:41;;;;;;;38.72;22.95;;;;;;;;;;5145606;27;20046;-58
2021/12/21 04:05:08;;;;;;;46.95;23.42;;;;;;;;;;5144945;27;20039;-59
2021/12/21 04:07:34;;;;;;;40.50;22.10;;;;;;;;;;5145640;27;20047;-59
2021/12/21 04:10:00;;;;;;;52.15;24.08;;;;;;;;;;5145464;27;20122;-58
2021/12/21 04:12:27;;;;;;;45.85;23.27;;;;;;;;;;5145512;27;20047;-58
2021/12/21 04:14:55;;;;;;;46.25;22.00;;;;;;;;;;5144972;27;20043;-58
2021/12/21 04:17:23;;;;;;;42.83;22.52;;;;;;;;;;5145111;28;20047;-58
2021/12/21 04:19:50;;;;;;;42.67;24.70;;;;;;;;;;5145390;28;20039;-59
2021/12/21 04:22:16;;;;;;;47.35;23.05;;;;;;;;;;5146490;27;20098;-59
2021/12/21 04:24:43;;;;;;;41.30;22.95;;;;;;;;;;5149668;27;20130;-59
2021/12/21 04:27:09;;;;;;;50.20;22.48;;;;;;;;;;5149635;27;20478;-59
2021/12/21 04:29:35;;;;;;;41.08;22.42;;;;;;;;;;5149506;27;20047;-58
2021/12/21 04:32:01;;;;;;;47.22;22.30;;;;;;;;;;5149055;27;20490;-59
2021/12/21 04:34:27;;;;;;;38.70;20.95;;;;;;;;;;5130608;27;20042;-59
2021/12/21 04:36:54;;;;;;;43.60;22.95;;;;;;;;;;5149326;27;20088;-59
2021/12/21 04:39:31;;;;;;;43.72;23.08;;;;;;;;;;5149076;27;20074;-59
2021/12/21 04:41:58;;;;;;;37.92;22.83;;;;;;;;;;5149216;27;20047;-59
2021/12/21 04:44:24;;;;;;;41.53;21.48;;;;;;;;;;5149325;27;20039;-59
2021/12/21 04:46:50;;;;;;;47.90;21.63;;;;;;;;;;5148888;27;20046;-59
2021/12/21 04:49:16;;;;;;;47.40;23.88;;;;;;;;;;5130795;27;20532;-58
2021/12/21 04:51:42;;;;;;;48.70;22.52;;;;;;;;;;5130132;27;20055;-58
2021/12/21 04:54:08;;;;;;;45.85;25.38;;;;;;;;;;5149213;27;20043;-59
2021/12/21 04:56:34;;;;;;;49.55;24.70;;;;;;;;;;5149019;27;20039;-59
2021/12/21 04:59:00;;;;;;;44.75;23.83;;;;;;;;;;5149202;27;20043;-59
2021/12/21 05:01:26;;;;;;;43.28;24.20;;;;;;;;;;5148113;27;20035;-59
2021/12/21 05:03:52;;;;;;;48.72;23.75;;;;;;;;;;5148938;27;20063;-59
2021/12/21 05:06:19;;;;;;;46.78;25.08;;;;;;;;;;5148850;27;20042;-59
2021/12/21 05:08:53;;;;;;;38.97;22.60;;;;;;;;;;5148951;27;20122;-59
2021/12/21 05:11:20;;;;;;;45.58;25.05;;;;;;;;;;5148777;27;20047;-59
2021/12/21 05:13:47;;;;;;;48.10;23.67;;;;;;;;;;5148858;27;20046;-59
2021/12/21 05:16:13;;;;;;;43.55;23.10;;;;;;;;;;5148311;27;20074;-59
2021/12/21 05:18:39;;;;;;;42.72;21.00;;;;;;;;;;5148761;27;20059;-59
2021/12/21 05:21:05;;;;;;;35.75;21.58;;;;;;;;;;5145448;27;20064;-59
2021/12/21 05:23:31;;;;;;;41.75;20.20;;;;;;;;;;5143381;27;20040;-59
2021/12/21 05:25:57;;;;;;;38.05;22.02;;;;;;;;;;5122166;27;20071;-58
2021/12/21 05:28:23;;;;;;;48.08;21.25;;;;;;;;;;5141765;27;20082;-59
2021/12/21 05:30:49;;;;;;;42.65;20.25;;;;;;;;;;5147024;27;20043;-59
2021/12/21 05:33:15;;;;;;;46.13;21.45;;;;;;;;;;5147343;27;20039;-59
2021/12/21 05:35:42;;;;;;;47.38;20.83;;;;;;;;;;5147427;27;20098;-59
2021/12/21 05:38:09;;;;;;;37.63;19.52;;;;;;;;;;5147947;27;20134;-59
2021/12/21 05:40:39;;;;;;;38.30;21.65;;;;;;;;;;5146744;27;20047;-58
2021/12/21 05:43:06;;;;;;;41.47;20.75;;;;;;;;;;5147368;27;20043;-58
2021/12/21 05:45:32;;;;;;;31.40;18.05;;;;;;;;;;5147491;27;20464;-58
2021/12/21 05:47:58;;;;;;;30.20;18.08;;;;;;;;;;5147513;27;20082;-59
2021/12/21 05:50:24;;;;;;;35.10;18.48;;;;;;;;;;5145639;27;20100;-59
2021/12/21 05:52:51;;;;;;;34.42;19.40;;;;;;;;;;5146314;27;20051;-59
2021/12/21 05:55:18;;;;;;;36.10;17.10;;;;;;;;;;5146714;27;20042;-59
2021/12/21 05:57:44;;;;;;;31.25;17.02;;;;;;;;;;5146043;27;20388;-58
2021/12/21 06:00:12;;;;;;;33.25;16.13;;;;;;;;;;5146240;27;20069;-59
2021/12/21 06:02:38;;;;;;;32.30;13.55;;;;;;;;;;5147790;27;20106;-59
2021/12/21 06:05:05;;;;;;;33.25;16.05;;;;;;;;;;5147608;27;20051;-59
2021/12/21 06:07:31;;;;;;;32.70;15.82;;;;;;;;;;5147723;27;20050;-59
2021/12/21 06:09:58;;;;;;;28.27;15.90;;;;;;;;;;5147363;27;20042;-59
2021/12/21 06:26:10;;;;;;;31.58;16.60;;;;;;;;;;5146911;27;20413;-60
2021/12/21 06:28:36;;;;;;;28.98;16.83;;;;;;;;;;5147903;27;20047;-59
2021/12/21 06:31:02;;;;;;;34.05;17.90;;;;;;;;;;5146844;27;20047;-59
2021/12/21 06:33:28;;;;;;;34.63;18.73;;;;;;;;;;5147054;27;20097;-59
2021/12/21 06:35:54;;;;;;;29.55;18.63;;;;;;;;;;5146610;27;20064;-59
2021/12/21 06:38:21;;;;;;;35.47;18.92;;;;;;;;;;5147007;27;20042;-59
2021/12/21 06:40:47;;;;;;;45.00;18.67;;;;;;;;;;5147048;27;20058;-59
2021/12/21 06:43:14;;;;;;;34.28;18.63;;;;;;;;;;5146976;27;20410;-58
2021/12/21 06:53:39;;;;;;;38.97;19.02;;;;;;;;;;5140631;27;20051;-59
2021/12/21 06:56:06;;;;;;;36.10;20.25;;;;;;;;;;5146159;27;20041;-59
2021/12/21 06:58:33;;;;;;;33.75;14.18;;;;;;;;;;5134893;27;20078;-59
2021/12/21 07:00:59;;;;;;;39.42;20.10;;;;;;;;;;5145381;27;20049;-59
2021/12/21 07:03:25;;;;;;;30.42;17.80;;;;;;;;;;5126002;28;20050;-58
2021/12/21 07:05:52;;;;;;;40.30;19.80;;;;;;;;;;5144814;27;20050;-58
2021/12/21 07:08:23;;;;;;;27.73;17.92;;;;;;;;;;5145747;27;20126;-58
2021/12/21 07:11:11;;;;;;;42.20;21.05;;;;;;;;;;5144855;27;20043;-59
2021/12/21 07:19:17;;;;;;;34.70;19.30;;;;;;;;;;5060726;28;20045;-59
2021/12/21 07:21:43;;;;;;;31.73;18.92;;;;;;;;;;5061550;28;20110;-58
2021/12/21 07:24:09;;;;;;;27.65;14.38;;;;;;;;;;5062297;28;20053;-59
2021/12/21 07:26:35;;;;;;;33.05;13.85;;;;;;;;;;5060888;28;20090;-59
2021/12/21 07:29:02;;;;;;;31.27;16.20;;;;;;;;;;5061394;28;20057;-59
2021/12/21 07:31:28;;;;;;;30.55;15.38;;;;;;;;;;5058331;28;20059;-59
2021/12/21 07:33:55;;;;;;;31.73;14.75;;;;;;;;;;5057951;28;20582;-58
2021/12/21 07:36:21;;;;;;;30.13;17.90;;;;;;;;;;5060311;28;20099;-58
2021/12/21 07:38:47;;;;;;;30.13;15.88;;;;;;;;;;5061624;28;20061;-59
2021/12/21 07:41:13;;;;;;;33.40;15.20;;;;;;;;;;5061536;28;20365;-60
2021/12/21 07:43:39;;;;;;;31.75;14.52;;;;;;;;;;5062009;28;20049;-59
2021/12/21 07:46:05;;;;;;;31.65;16.30;;;;;;;;;;5061938;28;20067;-58
2021/12/21 07:48:31;;;;;;;38.22;18.92;;;;;;;;;;5061966;28;20049;-59
2021/12/21 07:50:57;;;;;;;33.05;18.15;;;;;;;;;;5061291;28;20057;-59
2021/12/21 07:53:24;;;;;;;38.72;19.20;;;;;;;;;;5061878;28;20071;-59
2021/12/21 07:55:50;;;;;;;32.47;15.98;;;;;;;;;;5109252;27;20059;-59
2021/12/21 07:58:16;;;;;;;32.03;16.10;;;;;;;;;;5144998;27;20410;-59
2021/12/21 08:00:42;;;;;;;41.30;15.98;;;;;;;;;;5145439;27;20478;-59
2021/12/21 08:03:09;;;;;;;35.42;16.13;;;;;;;;;;5145454;27;20513;-59
2021/12/21 08:05:35;;;;;;;33.67;17.05;;;;;;;;;;5143890;27;20054;-59
2021/12/21 08:08:16;;;;;;;30.77;16.42;;;;;;;;;;5138001;27;20043;-59
2021/12/21 08:10:50;;;;;;;36.45;16.40;;;;;;;;;;5133159;27;20035;-60
2021/12/21 08:13:16;;;;;;;33.35;17.20;;;;;;;;;;5145016;27;20043;-60
2021/12/21 08:15:42;;;;;;;39.60;18.25;;;;;;;;;;5145365;27;20055;-60
2021/12/21 08:18:08;;;;;;;39.65;18.15;;;;;;;;;;5145488;28;20057;-60
2021/12/21 08:20:35;;;;;;;37.22;18.05;;;;;;;;;;5127171;28;20406;-60
2021/12/21 08:23:01;;;;;;;35.97;19.50;;;;;;;;;;5124522;28;20078;-60
2021/12/21 08:25:28;;;;;;;40.53;20.15;;;;;;;;;;5124520;28;20040;-60
2021/12/21 08:27:57;;;;;;;41.30;20.83;;;;;;;;;;5139588;28;20039;-59
2021/12/21 08:30:24;;;;;;;37.10;20.15;;;;;;;;;;5145069;28;20073;-59
2021/12/21 08:32:50;;;;;;;37.55;19.05;;;;;;;;;;5143642;28;20068;-59
2021/12/21 08:35:16;;;;;;;42.00;21.13;;;;;;;;;;5144457;28;20047;-60
2021/12/21 08:37:49;;;;;;;39.85;21.38;;;;;;;;;;5145325;28;20078;-59
2021/12/21 08:40:15;;;;;;;41.85;21.20;;;;;;;;;;5144917;28;20047;-59
2021/12/21 08:42:45;;;;;;;38.42;19.88;;;;;;;;;;5139227;28;20130;-59
2021/12/21 08:45:11;;;;;;;41.40;19.70;;;;;;;;;;5141784;28;20121;-59
2021/12/21 08:47:37;;;;;;;40.33;19.88;;;;;;;;;;5129907;28;20043;-59
2021/12/21 08:50:04;;;;;;;39.97;19.85;;;;;;;;;;5127069;28;20035;-58
2021/12/21 08:52:31;;;;;;;37.78;20.67;;;;;;;;;;5145404;28;20051;-59
2021/12/21 08:54:57;;;;;;;31.52;18.42;;;;;;;;;;5141591;28;20040;-59
2021/12/21 08:57:23;;;;;;;32.00;18.05;;;;;;;;;;5123784;28;20050;-59
2021/12/21 08:59:50;;;;;;;37.10;19.83;;;;;;;;;;5124211;28;20051;-59
2021/12/21 09:02:16;;;;;;;30.50;18.83;;;;;;;;;;5127567;28;20095;-59
2021/12/21 09:04:42;;;;;;;34.35;19.02;;;;;;;;;;5144421;28;20077;-58
2021/12/21 09:07:09;;;;;;;37.88;19.38;;;;;;;;;;5143464;27;20091;-60
2021/12/21 09:09:35;;;;;;;31.88;17.73;;;;;;;;;;5148081;27;20050;-59
2021/12/21 09:12:01;;;;;;;34.80;19.52;;;;;;;;;;5148541;27;20036;-58
2021/12/21 09:14:31;;;;;;;39.92;18.92;;;;;;;;;;5148538;27;20039;-59
2021/12/21 09:16:58;;;;;;;38.30;19.45;;;;;;;;;;5140883;27;20050;-59
2021/12/21 09:19:24;;;;;;;36.53;18.67;;;;;;;;;;5127302;28;20047;-58
2021/12/21 09:21:50;;;;;;;33.58;18.60;;;;;;;;;;5137849;27;20521;-59
2021/12/21 09:24:16;;;;;;;32.97;16.95;;;;;;;;;;5140739;27;20042;-61
2021/12/21 09:26:42;;;;;;;30.88;16.38;;;;;;;;;;5147814;27;20054;-59
2021/12/21 09:29:09;;;;;;;29.27;16.33;;;;;;;;;;5142136;27;20118;-59
2021/12/21 09:31:35;;;;;;;24.90;16.50;;;;;;;;;;5139991;27;20051;-59
2021/12/21 09:34:01;;;;;;;36.28;17.42;;;;;;;;;;5146653;27;20043;-59
2021/12/21 09:36:29;;;;;;;33.25;16.52;;;;;;;;;;5147320;27;20058;-59
2021/12/21 09:38:55;;;;;;;33.58;17.00;;;;;;;;;;5147810;27;20042;-60
2021/12/21 09:41:22;;;;;;;27.63;15.07;;;;;;;;;;5146755;27;20039;-58
2021/12/21 09:43:48;;;;;;;28.80;15.43;;;;;;;;;;5119225;27;20133;-59
2021/12/21 09:46:14;;;;;;;24.42;14.00;;;;;;;;;;5147323;27;20054;-60
2021/12/21 09:48:41;;;;;;;20.27;13.00;;;;;;;;;;5140245;27;20145;-60
2021/12/21 09:51:07;;;;;;;27.48;14.38;;;;;;;;;;5146262;27;20047;-59
2021/12/21 09:53:34;;;;;;;21.00;12.93;;;;;;;;;;5136250;27;20050;-59
2021/12/21 09:56:01;;;;;;;32.47;15.07;;;;;;;;;;5146324;27;20074;-59
2021/12/21 09:58:27;;;;;;;27.75;13.80;;;;;;;;;;5146689;27;20051;-59
2021/12/21 10:00:53;;;;;;;29.10;15.43;;;;;;;;;;5146477;27;20035;-59
2021/12/21 10:03:20;;;;;;;23.05;13.48;;;;;;;;;;5146065;27;20454;-60
2021/12/21 10:05:46;;;;;;;23.55;13.07;;;;;;;;;;5146913;27;20122;-60
2021/12/21 10:08:19;;;;;;;19.35;11.75;;;;;;;;;;5147966;27;20047;-60
2021/12/21 10:10:47;;;;;;;25.27;12.95;;;;;;;;;;5147387;27;20047;-59
2021/12/21 10:13:17;;;;;;;17.50;11.88;;;;;;;;;;5147223;27;20056;-59
2021/12/21 10:15:45;;;;;;;24.42;11.32;;;;;;;;;;5147504;27;20533;-59
2021/12/21 10:18:12;;;;;;;22.45;10.40;;;;;;;;;;5147487;27;20043;-61
2021/12/21 10:20:38;;;;;;;17.07;8.17;;;;;;;;;;5143473;27;20043;-61
2021/12/21 10:23:10;;;;;;;16.77;7.60;;;;;;;;;;5147248;27;20055;-60
2021/12/21 10:25:41;;;;;;;16.05;7.93;;;;;;;;;;5138939;27;20047;-59
2021/12/21 10:28:07;;;;;;;16.90;7.72;;;;;;;;;;5144800;27;20055;-60
2021/12/21 10:30:33;;;;;;;20.17;8.20;;;;;;;;;;5140722;27;20052;-58
2021/12/21 10:33:01;;;;;;;18.65;8.35;;;;;;;;;;5120304;27;20039;-60
2021/12/21 10:35:32;;;;;;;14.63;7.75;;;;;;;;;;5139667;27;20414;-60
2021/12/21 10:38:02;;;;;;;17.13;7.88;;;;;;;;;;5126051;27;20047;-60
2021/12/21 10:40:28;;;;;;;16.70;7.70;;;;;;;;;;5146665;27;20107;-60
2021/12/21 10:42:56;;;;;;;20.80;7.85;;;;;;;;;;5146068;27;20094;-59
2021/12/21 10:45:30;;;;;;;16.38;7.82;;;;;;;;;;5127822;27;20057;-60
2021/12/21 10:47:58;;;;;;;13.50;7.47;;;;;;;;;;5146851;27;20039;-61
2021/12/21 10:50:26;;;;;;;23.30;8.38;;;;;;;;;;5145076;27;20463;-59
2021/12/21 10:52:54;;;;;;;13.52;6.70;;;;;;;;;;5146435;27;20047;-60
2021/12/21 10:55:27;;;;;;;17.13;7.00;;;;;;;;;;5140877;27;20050;-59
2021/12/21 10:58:04;;;;;;;12.00;6.97;;;;;;;;;;5145901;27;20146;-59
2021/12/21 11:00:30;;;;;;;15.13;6.88;;;;;;;;;;5146168;27;20432;-61
2021/12/21 11:02:57;;;;;;;13.65;6.50;;;;;;;;;;5135790;27;20407;-60
2021/12/21 11:05:23;;;;;;;18.45;6.78;;;;;;;;;;5141706;27;20134;-59
2021/12/21 11:08:01;;;;;;;12.40;5.85;;;;;;;;;;5144821;27;20115;-60
2021/12/21 11:10:30;;;;;;;11.90;6.60;;;;;;;;;;5137172;27;20046;-59
2021/12/21 11:12:59;;;;;;;15.13;6.60;;;;;;;;;;5141820;27;20550;-60
2021/12/21 11:15:29;;;;;;;16.02;6.53;;;;;;;;;;5146038;27;20072;-60
2021/12/21 11:18:00;;;;;;;16.75;6.97;;;;;;;;;;5145907;27;20047;-60
2021/12/21 11:20:26;;;;;;;15.88;6.22;;;;;;;;;;5145257;27;20480;-60
2021/12/21 11:22:53;;;;;;;21.75;7.47;;;;;;;;;;5141170;27;20111;-60
2021/12/21 11:25:19;;;;;;;14.43;5.70;;;;;;;;;;5125164;27;20186;-60
2021/12/21 11:27:46;;;;;;;9.00;5.38;;;;;;;;;;5132433;27;20091;-59
2021/12/21 11:30:14;;;;;;;10.80;5.88;;;;;;;;;;5145977;27;20130;-59
2021/12/21 11:32:42;;;;;;;;;;;;;;;;;;5146104;27;20117;-59
2021/12/21 11:37:38;;;;;;;11.05;4.57;;;;;;;;;;5144473;27;20043;-60
2021/12/21 11:40:06;;;;;;;11.27;5.30;;;;;;;;;;5144400;27;20039;-59
2021/12/21 11:42:55;;;;;;;9.90;4.50;;;;;;;;;;5138981;27;20080;-60
2021/12/21 11:45:31;;;;;;;12.77;4.15;;;;;;;;;;5123149;27;20095;-60
2021/12/21 11:47:59;;;;;;;7.75;4.05;;;;;;;;;;5144603;27;20050;-59
2021/12/21 11:50:26;;;;;;;12.35;4.47;;;;;;;;;;5144234;27;20065;-60
2021/12/21 11:52:54;;;;;;;12.68;4.05;;;;;;;;;;5145613;27;20059;-60
2021/12/21 11:55:22;;;;;;;10.68;3.60;;;;;;;;;;5145196;27;20061;-60
2021/12/21 11:57:50;;;;;;;9.30;3.97;;;;;;;;;;5125895;28;20130;-60
2021/12/21 12:00:35;;;;;;;8.77;4.13;;;;;;;;;;5125054;27;20043;-60
2021/12/21 12:03:13;;;;;;;7.03;3.75;;;;;;;;;;5129267;27;20039;-60
2021/12/21 12:05:42;;;;;;;11.93;3.80;;;;;;;;;;5140872;27;20050;-60
2021/12/21 12:08:09;;;;;;;11.02;3.80;;;;;;;;;;5145314;27;20039;-60
2021/12/21 12:10:39;;;;;;;8.55;3.65;;;;;;;;;;5143085;27;20057;-60
2021/12/21 12:13:09;;;;;;;10.10;4.25;;;;;;;;;;5139272;27;20047;-60
2021/12/21 12:15:53;;;;;;;11.60;4.05;;;;;;;;;;5137676;27;20081;-60
2021/12/21 12:18:20;;;;;;;7.55;3.30;;;;;;;;;;5134081;28;20134;-60
2021/12/21 12:20:46;;;;;;;11.45;3.70;;;;;;;;;;5140816;28;20078;-61
2021/12/21 12:23:13;;;;;;;10.02;3.83;;;;;;;;;;5118080;28;20085;-61
2021/12/21 12:25:49;;;;;;;9.90;3.78;;;;;;;;;;5125501;28;20043;-60
2021/12/21 12:28:21;;;;;;;7.72;3.28;;;;;;;;;;5136194;28;20533;-60
2021/12/21 12:30:49;;;;;;;8.75;3.10;;;;;;;;;;5139091;28;20061;-60
2021/12/21 12:33:15;;;;;;;11.18;3.58;;;;;;;;;;5140016;28;20039;-60
2021/12/21 12:35:43;;;;;;;10.82;3.50;;;;;;;;;;5143845;28;20039;-60
2021/12/21 12:38:12;;;;;;;7.57;3.83;;;;;;;;;;5138314;28;20047;-60
2021/12/21 12:40:46;;;;;;;8.43;3.80;;;;;;;;;;5143315;28;20126;-60
2021/12/21 12:43:15;;;;;;;8.45;3.65;;;;;;;;;;5140119;27;20051;-60
2021/12/21 12:45:51;;;;;;;8.50;3.58;;;;;;;;;;5140227;27;20040;-60
2021/12/21 12:48:32;;;;;;;10.43;3.80;;;;;;;;;;5129191;27;20557;-61
2021/12/21 12:51:02;;;;;;;10.27;3.38;;;;;;;;;;5142739;27;20059;-61
2021/12/21 12:53:35;;;;;;;8.48;4.13;;;;;;;;;;5146570;27;20491;-60
2021/12/21 12:56:03;;;;;;;6.35;3.60;;;;;;;;;;5147910;27;20429;-62
2021/12/21 12:58:29;;;;;;;7.80;2.95;;;;;;;;;;5144995;27;20039;-60
2021/12/21 13:01:00;;;;;;;8.03;3.97;;;;;;;;;;5147568;27;20139;-60
2021/12/21 13:03:43;;;;;;;8.18;4.07;;;;;;;;;;5142417;27;20590;-60
2021/12/21 13:06:11;;;;;;;8.93;3.50;;;;;;;;;;5147960;27;20077;-60
2021/12/21 13:08:38;;;;;;;6.07;3.58;;;;;;;;;;5148106;27;20445;-60
2021/12/21 13:11:04;;;;;;;13.02;4.18;;;;;;;;;;5147883;27;20055;-62
2021/12/21 13:13:35;;;;;;;8.27;3.55;;;;;;;;;;5146177;27;20098;-61
2021/12/21 13:16:14;;;;;;;7.80;3.58;;;;;;;;;;5139903;27;20574;-60
2021/12/21 13:18:45;;;;;;;11.18;3.80;;;;;;;;;;5148486;27;20070;-60
2021/12/21 13:21:23;;;;;;;7.57;3.78;;;;;;;;;;5147625;27;20047;-61
2021/12/21 13:23:51;;;;;;;6.22;3.00;;;;;;;;;;5139764;27;20050;-60
2021/12/21 13:26:18;;;;;;;6.13;3.53;;;;;;;;;;5143425;27;20051;-61
2021/12/21 13:28:46;;;;;;;7.82;3.83;;;;;;;;;;5142649;27;20050;-60
2021/12/21 13:31:15;;;;;;;10.65;3.75;;;;;;;;;;5147700;27;20067;-61
2021/12/21 13:33:41;;;;;;;10.63;3.55;;;;;;;;;;5146202;27;20054;-60
2021/12/21 13:36:09;;;;;;;11.57;4.85;;;;;;;;;;5147299;27;20070;-60
2021/12/21 13:38:36;;;;;;;12.10;3.88;;;;;;;;;;5147442;27;20063;-61
2021/12/21 13:41:07;;;;;;;6.38;3.45;;;;;;;;;;5139639;27;20050;-61
2021/12/21 13:43:34;;;;;;;8.45;3.72;;;;;;;;;;5146551;27;20078;-60
2021/12/21 13:46:01;;;;;;;7.77;4.00;;;;;;;;;;5127306;28;20083;-61
2021/12/21 13:48:30;;;;;;;5.38;3.28;;;;;;;;;;5127654;28;20728;-61
2021/12/21 13:51:10;;;;;;;9.07;4.80;;;;;;;;;;5133537;27;20062;-60
2021/12/21 13:53:47;;;;;;;15.27;7.00;;;;;;;;;;5138394;27;20047;-60
2021/12/21 13:56:15;;;;;;;8.93;4.47;;;;;;;;;;5126970;28;20072;-60
2021/12/21 13:58:41;;;;;;;;;;;;;;;;;;5127723;28;20070;-61
2021/12/21 14:01:07;;;;;;;10.60;3.78;;;;;;;;;;5136746;27;19927;-60
2021/12/21 14:03:44;;;;;;;8.90;4.20;;;;;;;;;;5147935;27;20046;-61
2021/12/21 14:06:13;;;;;;;8.38;3.90;;;;;;;;;;5147747;27;20066;-61
2021/12/21 14:08:43;;;;;;;13.65;4.32;;;;;;;;;;5147844;27;20039;-60
2021/12/21 14:11:11;;;;;;;8.45;4.20;;;;;;;;;;5141533;27;20055;-60
2021/12/21 14:13:42;;;;;;;8.77;4.35;;;;;;;;;;5139632;27;20047;-61
2021/12/21 14:16:10;;;;;;;7.45;3.83;;;;;;;;;;5122360;28;20121;-60
2021/12/21 14:18:41;;;;;;;10.85;3.97;;;;;;;;;;5142136;27;20057;-62
2021/12/21 14:21:09;;;;;;;6.95;3.67;;;;;;;;;;5145198;27;20121;-60
2021/12/21 14:23:36;;;;;;;10.77;4.35;;;;;;;;;;5146857;27;20539;-60
2021/12/21 14:26:10;;;;;;;8.60;4.32;;;;;;;;;;5146332;27;20039;-61
2021/12/21 14:28:53;;;;;;;9.52;4.57;;;;;;;;;;5146463;27;20048;-61
2021/12/21 14:31:47;;;;;;;11.43;3.65;;;;;;;;;;5127163;27;20387;-60
2021/12/21 14:34:18;;;;;;;7.57;3.55;;;;;;;;;;5134364;27;20583;-61
2021/12/21 14:36:44;;;;;;;7.50;3.60;;;;;;;;;;5146269;27;20035;-61
2021/12/21 14:39:12;;;;;;;15.05;4.00;;;;;;;;;;5146404;27;20130;-61
2021/12/21 14:41:43;;;;;;;10.23;4.03;;;;;;;;;;5127678;27;20092;-61
2021/12/21 14:44:09;;;;;;;10.18;4.22;;;;;;;;;;5145694;27;20084;-61
2021/12/21 14:46:38;;;;;;;7.20;4.38;;;;;;;;;;5134388;27;20036;-60
2021/12/21 14:49:07;;;;;;;9.43;4.35;;;;;;;;;;5141101;27;20047;-61
2021/12/21 14:51:38;;;;;;;7.57;3.58;;;;;;;;;;5145331;27;20061;-60
2021/12/21 14:54:08;;;;;;;8.85;4.05;;;;;;;;;;5145830;27;20072;-60
2021/12/21 14:56:36;;;;;;;8.07;3.92;;;;;;;;;;5144641;27;20069;-60
2021/12/21 14:59:02;;;;;;;;;;;;;;;;;;5140621;27;20504;-60
2021/12/21 15:01:36;;;;;;;8.07;4.93;;;;;;;;;;5139863;27;20410;-61
2021/12/21 15:04:22;;;;;;;10.63;5.53;;;;;;;;;;5140185;27;20047;-60
2021/12/21 15:06:48;;;;;;;10.07;4.10;;;;;;;;;;5135117;27;20047;-62
2021/12/21 15:09:15;;;;;;;8.85;5.00;;;;;;;;;;5128601;27;20047;-61
2021/12/21 15:11:45;;;;;;;13.77;5.40;;;;;;;;;;5129513;27;20039;-61
2021/12/21 15:14:11;;;;;;;12.25;5.32;;;;;;;;;;5141788;27;20115;-61
2021/12/21 15:16:37;;;;;;;9.48;5.55;;;;;;;;;;5125870;28;20047;-60
2021/12/21 15:19:03;;;;;;;10.50;5.93;;;;;;;;;;5119233;27;20039;-61
2021/12/21 15:21:30;;;;;;;10.88;5.88;;;;;;;;;;5145502;27;20051;-60
2021/12/21 15:24:00;;;;;;;13.18;6.55;;;;;;;;;;5145880;27;20063;-62
2021/12/21 15:26:26;;;;;;;12.52;7.50;;;;;;;;;;5143275;27;20050;-61
2021/12/21 15:28:52;;;;;;;9.40;6.30;;;;;;;;;;5140451;27;20043;-61
2021/12/21 15:31:19;;;;;;;14.30;7.55;;;;;;;;;;5138508;27;20038;-60
2021/12/21 15:33:45;;;;;;;16.30;7.38;;;;;;;;;;5145889;27;20061;-60
2021/12/21 15:36:11;;;;;;;13.75;7.28;;;;;;;;;;5145320;27;20050;-61
2021/12/21 15:38:38;;;;;;;12.10;6.60;;;;;;;;;;5141216;27;20059;-61
2021/12/21 15:41:04;;;;;;;13.18;6.47;;;;;;;;;;5137338;27;20066;-60